sensor_id;sensor_type;location;lat;lon;timestamp;temperature;humidity
770;DHT22;368;48.698;9.116;2022-11-20T00:00:39;4.90;99.90
770;DHT22;368;48.698;9.116;2022-11-20T00:03:05;4.60;99.90
770;DHT22;368;48.698;9.116;2022-11-20T00:05:33;4.70;99.90
770;DHT22;368;48.698;9.116;2022-11-20T00:08:00;4.30;99.90
770;DHT22;368;48.698;9.116;2022-11-20T00:10:27;4.50;99.90
770;DHT22;368;48.698;9.116;2022-11-20T00:12:54;4.50;99.90
770;DHT22;368;48.698;9.116;2022-11-20T00:15:21;4.30;99.90
770;DHT22;368;48.698;9.116;2022-11-20T00:17:48;4.40;99.90
770;DHT22;368;48.698;9.116;2022-11-20T00:20:14;4.30;99.90
770;DHT22;368;48.698;9.116;2022-11-20T00:22:43;4.40;99.90
770;DHT22;368;48.698;9.116;2022-11-20T00:25:09;4.50;99.90
770;DHT22;368;48.698;9.116;2022-11-20T00:27:37;4.30;99.90
770;DHT22;368;48.698;9.116;2022-11-20T00:30:04;4.30;99.90
770;DHT22;368;48.698;9.116;2022-11-20T00:32:31;4.30;99.90
770;DHT22;368;48.698;9.116;2022-11-20T00:34:58;4.40;99.90
770;DHT22;368;48.698;9.116;2022-11-20T00:37:25;4.50;99.90
770;DHT22;368;48.698;9.116;2022-11-20T00:39:53;4.30;99.90
770;DHT22;368;48.698;9.116;2022-11-20T00:42:19;4.20;99.90
770;DHT22;368;48.698;9.116;2022-11-20T00:44:46;4.40;99.90
770;DHT22;368;48.698;9.116;2022-11-20T00:47:13;4.60;99.90
770;DHT22;368;48.698;9.116;2022-11-20T00:49:40;4.30;99.90
770;DHT22;368;48.698;9.116;2022-11-20T00:52:07;4.50;99.90
770;DHT22;368;48.698;9.116;2022-11-20T00:54:33;4.70;99.90
770;DHT22;368;48.698;9.116;2022-11-20T00:57:02;4.60;99.90
770;DHT22;368;48.698;9.116;2022-11-20T00:59:28;4.30;99.90
770;DHT22;368;48.698;9.116;2022-11-20T01:01:55;4.50;99.90
770;DHT22;368;48.698;9.116;2022-11-20T01:04:22;4.50;99.90
770;DHT22;368;48.698;9.116;2022-11-20T01:06:49;4.50;99.90
770;DHT22;368;48.698;9.116;2022-11-20T01:09:15;4.30;99.90
770;DHT22;368;48.698;9.116;2022-11-20T01:11:43;4.40;99.90
770;DHT22;368;48.698;9.116;2022-11-20T01:14:13;4.30;99.90
770;DHT22;368;48.698;9.116;2022-11-20T01:16:41;4.40;99.90
770;DHT22;368;48.698;9.116;2022-11-20T01:19:11;4.20;99.90
770;DHT22;368;48.698;9.116;2022-11-20T01:21:39;4.30;99.90
770;DHT22;368;48.698;9.116;2022-11-20T01:24:08;4.20;99.90
770;DHT22;368;48.698;9.116;2022-11-20T01:26:38;4.10;99.90
770;DHT22;368;48.698;9.116;2022-11-20T01:29:05;3.80;99.90
770;DHT22;368;48.698;9.116;2022-11-20T01:31:35;3.80;99.90
770;DHT22;368;48.698;9.116;2022-11-20T01:34:04;3.90;99.90
770;DHT22;368;48.698;9.116;2022-11-20T01:36:32;3.70;99.90
770;DHT22;368;48.698;9.116;2022-11-20T01:39:02;3.40;99.90
770;DHT22;368;48.698;9.116;2022-11-20T01:41:31;3.40;99.90
770;DHT22;368;48.698;9.116;2022-11-20T01:44:19;3.40;99.90
770;DHT22;368;48.698;9.116;2022-11-20T01:46:53;3.10;99.90
770;DHT22;368;48.698;9.116;2022-11-20T01:49:25;3.40;99.90
770;DHT22;368;48.698;9.116;2022-11-20T01:51:55;3.10;99.90
770;DHT22;368;48.698;9.116;2022-11-20T01:54:27;3.20;99.90
770;DHT22;368;48.698;9.116;2022-11-20T01:56:59;3.40;99.90
770;DHT22;368;48.698;9.116;2022-11-20T01:59:28;3.30;99.90
770;DHT22;368;48.698;9.116;2022-11-20T02:01:57;3.10;99.90
770;DHT22;368;48.698;9.116;2022-11-20T02:04:24;3.30;99.90
770;DHT22;368;48.698;9.116;2022-11-20T02:06:56;3.30;99.90
770;DHT22;368;48.698;9.116;2022-11-20T02:09:24;3.00;99.90
770;DHT22;368;48.698;9.116;2022-11-20T02:11:52;3.30;99.90
770;DHT22;368;48.698;9.116;2022-11-20T02:14:19;3.20;99.90
770;DHT22;368;48.698;9.116;2022-11-20T02:16:46;3.00;99.90
770;DHT22;368;48.698;9.116;2022-11-20T02:19:22;3.20;99.90
770;DHT22;368;48.698;9.116;2022-11-20T02:21:56;3.00;99.90
770;DHT22;368;48.698;9.116;2022-11-20T02:24:26;3.20;99.90
770;DHT22;368;48.698;9.116;2022-11-20T02:26:54;3.30;99.90
770;DHT22;368;48.698;9.116;2022-11-20T02:29:25;3.30;99.90
770;DHT22;368;48.698;9.116;2022-11-20T02:31:54;3.50;99.90
770;DHT22;368;48.698;9.116;2022-11-20T02:34:21;3.60;99.90
770;DHT22;368;48.698;9.116;2022-11-20T02:36:49;3.40;99.90
770;DHT22;368;48.698;9.116;2022-11-20T02:39:17;3.40;99.90
770;DHT22;368;48.698;9.116;2022-11-20T02:41:46;3.40;99.90
770;DHT22;368;48.698;9.116;2022-11-20T02:44:13;3.40;99.90
770;DHT22;368;48.698;9.116;2022-11-20T02:46:40;3.70;99.90
770;DHT22;368;48.698;9.116;2022-11-20T02:49:07;3.70;99.90
770;DHT22;368;48.698;9.116;2022-11-20T02:51:34;3.80;99.90
770;DHT22;368;48.698;9.116;2022-11-20T02:54:00;3.50;99.90
770;DHT22;368;48.698;9.116;2022-11-20T02:56:27;3.80;99.90
770;DHT22;368;48.698;9.116;2022-11-20T02:58:56;3.90;99.90
770;DHT22;368;48.698;9.116;2022-11-20T03:01:22;3.80;99.90
770;DHT22;368;48.698;9.116;2022-11-20T03:03:49;4.10;99.90
770;DHT22;368;48.698;9.116;2022-11-20T03:06:17;4.10;99.90
770;DHT22;368;48.698;9.116;2022-11-20T03:08:44;4.10;99.90
770;DHT22;368;48.698;9.116;2022-11-20T03:11:11;3.90;99.90
770;DHT22;368;48.698;9.116;2022-11-20T03:13:38;4.00;99.90
770;DHT22;368;48.698;9.116;2022-11-20T03:16:11;3.90;99.90
770;DHT22;368;48.698;9.116;2022-11-20T03:18:39;4.10;99.90
770;DHT22;368;48.698;9.116;2022-11-20T03:21:06;4.20;99.90
770;DHT22;368;48.698;9.116;2022-11-20T03:23:34;4.30;99.90
770;DHT22;368;48.698;9.116;2022-11-20T03:26:09;4.40;99.90
770;DHT22;368;48.698;9.116;2022-11-20T03:28:36;4.30;99.90
770;DHT22;368;48.698;9.116;2022-11-20T03:31:07;4.40;99.90
770;DHT22;368;48.698;9.116;2022-11-20T03:33:36;4.20;99.90
770;DHT22;368;48.698;9.116;2022-11-20T03:36:03;4.00;99.90
770;DHT22;368;48.698;9.116;2022-11-20T03:38:30;4.10;99.90
770;DHT22;368;48.698;9.116;2022-11-20T03:40:59;4.00;99.90
770;DHT22;368;48.698;9.116;2022-11-20T03:43:26;4.10;99.90
770;DHT22;368;48.698;9.116;2022-11-20T03:45:53;3.60;99.90
770;DHT22;368;48.698;9.116;2022-11-20T03:48:20;3.70;99.90
770;DHT22;368;48.698;9.116;2022-11-20T03:50:48;3.60;99.90
770;DHT22;368;48.698;9.116;2022-11-20T03:53:15;3.60;99.90
770;DHT22;368;48.698;9.116;2022-11-20T03:55:42;3.70;99.90
770;DHT22;368;48.698;9.116;2022-11-20T03:58:09;3.70;99.90
770;DHT22;368;48.698;9.116;2022-11-20T04:00:36;3.60;99.90
770;DHT22;368;48.698;9.116;2022-11-20T04:03:03;3.60;99.90
770;DHT22;368;48.698;9.116;2022-11-20T04:05:29;3.50;99.90
770;DHT22;368;48.698;9.116;2022-11-20T04:07:57;3.60;99.90
770;DHT22;368;48.698;9.116;2022-11-20T04:10:25;3.50;99.90
770;DHT22;368;48.698;9.116;2022-11-20T04:12:52;3.30;99.90
770;DHT22;368;48.698;9.116;2022-11-20T04:15:19;3.70;99.90
770;DHT22;368;48.698;9.116;2022-11-20T04:17:45;3.70;99.90
770;DHT22;368;48.698;9.116;2022-11-20T04:20:12;3.60;99.90
770;DHT22;368;48.698;9.116;2022-11-20T04:22:40;3.70;99.90
770;DHT22;368;48.698;9.116;2022-11-20T04:25:09;3.50;99.90
770;DHT22;368;48.698;9.116;2022-11-20T04:27:36;3.80;99.90
770;DHT22;368;48.698;9.116;2022-11-20T04:30:03;3.70;99.90
770;DHT22;368;48.698;9.116;2022-11-20T04:32:30;3.80;99.90
770;DHT22;368;48.698;9.116;2022-11-20T04:34:57;3.80;99.90
770;DHT22;368;48.698;9.116;2022-11-20T04:37:23;3.40;99.90
770;DHT22;368;48.698;9.116;2022-11-20T04:39:50;3.60;99.90
770;DHT22;368;48.698;9.116;2022-11-20T04:42:18;3.80;99.90
770;DHT22;368;48.698;9.116;2022-11-20T04:44:57;3.60;99.90
770;DHT22;368;48.698;9.116;2022-11-20T04:47:24;3.70;99.90
770;DHT22;368;48.698;9.116;2022-11-20T04:49:51;3.90;99.90
770;DHT22;368;48.698;9.116;2022-11-20T04:52:18;3.90;99.90
770;DHT22;368;48.698;9.116;2022-11-20T04:54:45;3.80;99.90
770;DHT22;368;48.698;9.116;2022-11-20T04:57:13;4.00;99.90
770;DHT22;368;48.698;9.116;2022-11-20T04:59:42;4.00;99.90
770;DHT22;368;48.698;9.116;2022-11-20T05:02:09;4.00;99.90
770;DHT22;368;48.698;9.116;2022-11-20T05:04:36;4.10;99.90
770;DHT22;368;48.698;9.116;2022-11-20T05:07:03;4.10;99.90
770;DHT22;368;48.698;9.116;2022-11-20T05:09:30;4.20;99.90
770;DHT22;368;48.698;9.116;2022-11-20T05:11:57;4.40;99.90
770;DHT22;368;48.698;9.116;2022-11-20T05:14:24;4.30;99.90
770;DHT22;368;48.698;9.116;2022-11-20T05:16:52;4.30;99.90
770;DHT22;368;48.698;9.116;2022-11-20T05:19:18;4.20;99.90
770;DHT22;368;48.698;9.116;2022-11-20T05:21:45;4.40;99.90
770;DHT22;368;48.698;9.116;2022-11-20T05:24:12;4.50;99.90
770;DHT22;368;48.698;9.116;2022-11-20T05:26:39;4.40;99.90
770;DHT22;368;48.698;9.116;2022-11-20T05:29:06;4.40;99.90
770;DHT22;368;48.698;9.116;2022-11-20T05:31:32;4.50;99.90
770;DHT22;368;48.698;9.116;2022-11-20T05:34:00;4.40;99.90
770;DHT22;368;48.698;9.116;2022-11-20T05:36:27;4.50;99.90
770;DHT22;368;48.698;9.116;2022-11-20T05:38:54;4.40;99.90
770;DHT22;368;48.698;9.116;2022-11-20T05:41:21;4.30;99.90
770;DHT22;368;48.698;9.116;2022-11-20T05:43:48;4.50;99.90
770;DHT22;368;48.698;9.116;2022-11-20T05:46:17;4.40;99.90
770;DHT22;368;48.698;9.116;2022-11-20T05:48:45;4.40;99.90
770;DHT22;368;48.698;9.116;2022-11-20T05:51:15;4.40;99.90
770;DHT22;368;48.698;9.116;2022-11-20T05:53:42;4.40;99.90
770;DHT22;368;48.698;9.116;2022-11-20T05:56:11;4.50;99.90
770;DHT22;368;48.698;9.116;2022-11-20T05:58:39;4.40;99.90
770;DHT22;368;48.698;9.116;2022-11-20T06:01:08;4.50;99.90
770;DHT22;368;48.698;9.116;2022-11-20T06:03:35;4.60;99.90
770;DHT22;368;48.698;9.116;2022-11-20T06:06:03;4.50;99.90
770;DHT22;368;48.698;9.116;2022-11-20T06:08:32;4.50;99.90
770;DHT22;368;48.698;9.116;2022-11-20T06:11:03;4.40;99.90
770;DHT22;368;48.698;9.116;2022-11-20T06:13:31;4.40;99.90
770;DHT22;368;48.698;9.116;2022-11-20T06:15:57;4.60;99.90
770;DHT22;368;48.698;9.116;2022-11-20T06:18:26;4.40;99.90
770;DHT22;368;48.698;9.116;2022-11-20T06:21:00;4.50;99.90
770;DHT22;368;48.698;9.116;2022-11-20T06:23:28;4.50;99.90
770;DHT22;368;48.698;9.116;2022-11-20T06:25:57;4.50;99.90
770;DHT22;368;48.698;9.116;2022-11-20T06:28:24;4.70;99.90
770;DHT22;368;48.698;9.116;2022-11-20T06:30:50;4.60;99.90
770;DHT22;368;48.698;9.116;2022-11-20T06:33:17;4.60;99.90
770;DHT22;368;48.698;9.116;2022-11-20T06:35:44;4.70;99.90
770;DHT22;368;48.698;9.116;2022-11-20T06:38:11;4.40;99.90
770;DHT22;368;48.698;9.116;2022-11-20T06:40:40;4.50;99.90
770;DHT22;368;48.698;9.116;2022-11-20T06:43:09;4.60;99.90
770;DHT22;368;48.698;9.116;2022-11-20T06:45:36;4.50;99.90
770;DHT22;368;48.698;9.116;2022-11-20T06:48:04;4.40;99.90
770;DHT22;368;48.698;9.116;2022-11-20T06:50:30;4.50;99.90
770;DHT22;368;48.698;9.116;2022-11-20T06:53:00;4.50;99.90
770;DHT22;368;48.698;9.116;2022-11-20T06:55:27;4.50;99.90
770;DHT22;368;48.698;9.116;2022-11-20T06:57:54;4.50;99.90
770;DHT22;368;48.698;9.116;2022-11-20T07:00:22;4.40;99.90
770;DHT22;368;48.698;9.116;2022-11-20T07:02:49;4.50;99.90
770;DHT22;368;48.698;9.116;2022-11-20T07:05:17;4.40;99.90
770;DHT22;368;48.698;9.116;2022-11-20T07:07:44;4.50;99.90
770;DHT22;368;48.698;9.116;2022-11-20T07:10:11;4.60;99.90
770;DHT22;368;48.698;9.116;2022-11-20T07:12:38;4.70;99.90
770;DHT22;368;48.698;9.116;2022-11-20T07:15:06;4.60;99.90
770;DHT22;368;48.698;9.116;2022-11-20T07:17:34;4.70;99.90
770;DHT22;368;48.698;9.116;2022-11-20T07:20:01;4.60;99.90
770;DHT22;368;48.698;9.116;2022-11-20T07:22:28;4.80;99.90
770;DHT22;368;48.698;9.116;2022-11-20T07:24:54;4.60;99.90
770;DHT22;368;48.698;9.116;2022-11-20T07:27:21;4.70;99.90
770;DHT22;368;48.698;9.116;2022-11-20T07:29:48;4.90;99.90
770;DHT22;368;48.698;9.116;2022-11-20T07:32:15;5.00;99.90
770;DHT22;368;48.698;9.116;2022-11-20T07:34:43;4.90;99.90
770;DHT22;368;48.698;9.116;2022-11-20T07:37:09;4.80;99.90
770;DHT22;368;48.698;9.116;2022-11-20T07:39:36;4.70;99.90
770;DHT22;368;48.698;9.116;2022-11-20T07:42:03;4.80;99.90
770;DHT22;368;48.698;9.116;2022-11-20T07:44:30;4.80;99.90
770;DHT22;368;48.698;9.116;2022-11-20T07:46:57;4.70;99.90
770;DHT22;368;48.698;9.116;2022-11-20T07:49:23;4.80;99.90
770;DHT22;368;48.698;9.116;2022-11-20T07:51:52;4.70;99.90
770;DHT22;368;48.698;9.116;2022-11-20T07:54:19;4.90;99.90
770;DHT22;368;48.698;9.116;2022-11-20T07:56:46;5.10;99.90
770;DHT22;368;48.698;9.116;2022-11-20T07:59:13;5.20;99.90
770;DHT22;368;48.698;9.116;2022-11-20T08:01:41;4.90;99.90
770;DHT22;368;48.698;9.116;2022-11-20T08:04:08;5.30;99.90
770;DHT22;368;48.698;9.116;2022-11-20T08:06:35;5.30;99.90
770;DHT22;368;48.698;9.116;2022-11-20T08:09:03;5.30;99.90
770;DHT22;368;48.698;9.116;2022-11-20T08:11:30;5.20;99.90
770;DHT22;368;48.698;9.116;2022-11-20T08:14:15;5.40;99.90
770;DHT22;368;48.698;9.116;2022-11-20T08:16:43;5.50;99.90
770;DHT22;368;48.698;9.116;2022-11-20T08:19:10;5.50;99.90
770;DHT22;368;48.698;9.116;2022-11-20T08:21:37;5.30;99.90
770;DHT22;368;48.698;9.116;2022-11-20T08:24:07;5.70;99.90
770;DHT22;368;48.698;9.116;2022-11-20T08:26:34;5.60;99.90
770;DHT22;368;48.698;9.116;2022-11-20T08:29:02;5.80;99.90
770;DHT22;368;48.698;9.116;2022-11-20T08:31:29;5.60;99.90
770;DHT22;368;48.698;9.116;2022-11-20T08:33:56;5.80;99.90
770;DHT22;368;48.698;9.116;2022-11-20T08:36:24;5.70;99.90
770;DHT22;368;48.698;9.116;2022-11-20T08:38:52;5.60;99.90
770;DHT22;368;48.698;9.116;2022-11-20T08:41:21;5.60;99.90
770;DHT22;368;48.698;9.116;2022-11-20T08:43:54;5.70;99.90
770;DHT22;368;48.698;9.116;2022-11-20T08:46:21;5.70;99.90
770;DHT22;368;48.698;9.116;2022-11-20T08:48:48;5.60;99.90
770;DHT22;368;48.698;9.116;2022-11-20T08:51:16;5.80;99.90
770;DHT22;368;48.698;9.116;2022-11-20T08:53:43;5.90;99.90
770;DHT22;368;48.698;9.116;2022-11-20T08:56:10;6.30;99.90
770;DHT22;368;48.698;9.116;2022-11-20T08:58:38;6.10;99.90
770;DHT22;368;48.698;9.116;2022-11-20T09:01:06;6.00;99.90
770;DHT22;368;48.698;9.116;2022-11-20T09:03:33;6.20;99.90
770;DHT22;368;48.698;9.116;2022-11-20T09:06:01;6.20;99.90
770;DHT22;368;48.698;9.116;2022-11-20T09:08:28;6.30;99.90
770;DHT22;368;48.698;9.116;2022-11-20T09:10:57;6.60;99.90
770;DHT22;368;48.698;9.116;2022-11-20T09:13:28;6.40;99.90
770;DHT22;368;48.698;9.116;2022-11-20T09:15:58;6.40;99.90
770;DHT22;368;48.698;9.116;2022-11-20T09:18:27;6.40;99.90
770;DHT22;368;48.698;9.116;2022-11-20T09:20:57;6.20;99.90
770;DHT22;368;48.698;9.116;2022-11-20T09:23:24;6.10;99.90
770;DHT22;368;48.698;9.116;2022-11-20T09:25:51;6.30;99.90
770;DHT22;368;48.698;9.116;2022-11-20T09:28:20;6.50;99.90
770;DHT22;368;48.698;9.116;2022-11-20T09:30:47;6.70;99.90
770;DHT22;368;48.698;9.116;2022-11-20T09:33:15;6.60;99.90
770;DHT22;368;48.698;9.116;2022-11-20T09:35:43;6.70;99.90
770;DHT22;368;48.698;9.116;2022-11-20T09:38:10;6.50;99.90
770;DHT22;368;48.698;9.116;2022-11-20T09:40:40;6.20;99.90
770;DHT22;368;48.698;9.116;2022-11-20T09:43:15;6.30;99.90
770;DHT22;368;48.698;9.116;2022-11-20T09:45:54;6.40;99.90
770;DHT22;368;48.698;9.116;2022-11-20T09:48:48;6.20;99.90
770;DHT22;368;48.698;9.116;2022-11-20T09:51:27;6.30;99.90
770;DHT22;368;48.698;9.116;2022-11-20T09:54:10;6.30;99.90
770;DHT22;368;48.698;9.116;2022-11-20T09:56:41;6.60;99.90
770;DHT22;368;48.698;9.116;2022-11-20T09:59:18;6.60;99.90
770;DHT22;368;48.698;9.116;2022-11-20T10:01:50;6.40;99.90
770;DHT22;368;48.698;9.116;2022-11-20T10:04:19;6.60;99.90
770;DHT22;368;48.698;9.116;2022-11-20T10:06:53;6.50;99.90
770;DHT22;368;48.698;9.116;2022-11-20T10:09:29;6.30;99.90
770;DHT22;368;48.698;9.116;2022-11-20T10:12:06;6.20;99.90
770;DHT22;368;48.698;9.116;2022-11-20T10:14:46;6.40;99.90
770;DHT22;368;48.698;9.116;2022-11-20T10:17:27;6.20;99.90
770;DHT22;368;48.698;9.116;2022-11-20T10:20:15;6.40;99.90
770;DHT22;368;48.698;9.116;2022-11-20T10:22:52;6.40;99.90
770;DHT22;368;48.698;9.116;2022-11-20T10:25:24;6.40;99.90
770;DHT22;368;48.698;9.116;2022-11-20T10:30:52;6.40;99.90
770;DHT22;368;48.698;9.116;2022-11-20T10:33:22;6.60;99.90
770;DHT22;368;48.698;9.116;2022-11-20T10:35:58;6.80;99.90
770;DHT22;368;48.698;9.116;2022-11-20T10:38:31;6.40;99.90
770;DHT22;368;48.698;9.116;2022-11-20T10:41:02;6.80;99.90
770;DHT22;368;48.698;9.116;2022-11-20T10:43:44;6.50;99.90
770;DHT22;368;48.698;9.116;2022-11-20T10:46:15;6.60;99.90
770;DHT22;368;48.698;9.116;2022-11-20T10:48:44;6.50;99.90
770;DHT22;368;48.698;9.116;2022-11-20T10:51:21;6.50;99.90
770;DHT22;368;48.698;9.116;2022-11-20T10:54:10;6.50;99.90
770;DHT22;368;48.698;9.116;2022-11-20T10:56:41;6.30;99.90
770;DHT22;368;48.698;9.116;2022-11-20T10:59:48;6.30;99.90
770;DHT22;368;48.698;9.116;2022-11-20T11:02:19;6.20;99.90
770;DHT22;368;48.698;9.116;2022-11-20T11:04:48;6.10;99.90
770;DHT22;368;48.698;9.116;2022-11-20T11:07:20;6.50;99.90
770;DHT22;368;48.698;9.116;2022-11-20T11:09:50;6.60;99.90
770;DHT22;368;48.698;9.116;2022-11-20T11:12:19;6.70;99.90
770;DHT22;368;48.698;9.116;2022-11-20T11:14:48;6.90;99.90
770;DHT22;368;48.698;9.116;2022-11-20T11:17:25;6.90;99.90
770;DHT22;368;48.698;9.116;2022-11-20T11:20:02;6.70;99.90
770;DHT22;368;48.698;9.116;2022-11-20T11:22:33;6.90;99.90
770;DHT22;368;48.698;9.116;2022-11-20T11:25:02;7.00;99.90
770;DHT22;368;48.698;9.116;2022-11-20T11:27:28;7.00;99.90
770;DHT22;368;48.698;9.116;2022-11-20T11:30:11;7.20;99.90
770;DHT22;368;48.698;9.116;2022-11-20T11:32:39;9.40;99.90
770;DHT22;368;48.698;9.116;2022-11-20T11:35:17;9.40;99.90
770;DHT22;368;48.698;9.116;2022-11-20T11:37:47;8.70;99.90
770;DHT22;368;48.698;9.116;2022-11-20T11:40:15;7.70;99.90
770;DHT22;368;48.698;9.116;2022-11-20T11:42:43;7.50;99.90
770;DHT22;368;48.698;9.116;2022-11-20T11:45:14;8.20;99.90
770;DHT22;368;48.698;9.116;2022-11-20T11:47:45;11.40;99.90
770;DHT22;368;48.698;9.116;2022-11-20T11:50:18;13.10;99.90
770;DHT22;368;48.698;9.116;2022-11-20T11:52:54;13.10;99.30
770;DHT22;368;48.698;9.116;2022-11-20T11:55:28;14.30;97.60
770;DHT22;368;48.698;9.116;2022-11-20T11:58:00;14.90;96.10
770;DHT22;368;48.698;9.116;2022-11-20T12:00:31;14.20;95.30
770;DHT22;368;48.698;9.116;2022-11-20T12:03:04;12.20;96.60
770;DHT22;368;48.698;9.116;2022-11-20T12:05:38;11.50;97.50
770;DHT22;368;48.698;9.116;2022-11-20T12:08:15;11.10;98.90
770;DHT22;368;48.698;9.116;2022-11-20T12:10:45;11.30;99.10
770;DHT22;368;48.698;9.116;2022-11-20T12:13:25;11.70;98.20
770;DHT22;368;48.698;9.116;2022-11-20T12:15:53;13.20;96.70
770;DHT22;368;48.698;9.116;2022-11-20T12:18:21;14.10;94.30
770;DHT22;368;48.698;9.116;2022-11-20T12:20:59;12.70;94.50
770;DHT22;368;48.698;9.116;2022-11-20T12:23:39;12.00;95.00
770;DHT22;368;48.698;9.116;2022-11-20T12:26:17;10.90;96.00
770;DHT22;368;48.698;9.116;2022-11-20T12:28:56;10.70;96.50
770;DHT22;368;48.698;9.116;2022-11-20T12:31:45;9.40;98.40
770;DHT22;368;48.698;9.116;2022-11-20T12:34:34;9.10;99.90
770;DHT22;368;48.698;9.116;2022-11-20T12:37:08;8.90;99.90
770;DHT22;368;48.698;9.116;2022-11-20T12:39:42;8.70;99.90
770;DHT22;368;48.698;9.116;2022-11-20T12:42:43;8.60;99.90
770;DHT22;368;48.698;9.116;2022-11-20T12:45:50;8.80;99.90
770;DHT22;368;48.698;9.116;2022-11-20T12:48:38;9.40;99.90
770;DHT22;368;48.698;9.116;2022-11-20T12:51:32;9.20;99.90
770;DHT22;368;48.698;9.116;2022-11-20T12:54:22;9.60;99.90
770;DHT22;368;48.698;9.116;2022-11-20T12:56:57;10.10;98.40
770;DHT22;368;48.698;9.116;2022-11-20T12:59:34;11.60;97.10
770;DHT22;368;48.698;9.116;2022-11-20T13:02:19;12.10;94.60
770;DHT22;368;48.698;9.116;2022-11-20T13:05:05;14.20;92.10
770;DHT22;368;48.698;9.116;2022-11-20T13:07:35;14.20;90.00
770;DHT22;368;48.698;9.116;2022-11-20T13:10:03;14.50;90.30
770;DHT22;368;48.698;9.116;2022-11-20T13:12:35;14.30;90.30
770;DHT22;368;48.698;9.116;2022-11-20T13:15:13;13.60;90.50
770;DHT22;368;48.698;9.116;2022-11-20T13:17:49;13.10;91.00
770;DHT22;368;48.698;9.116;2022-11-20T13:20:18;12.10;92.10
770;DHT22;368;48.698;9.116;2022-11-20T13:22:46;11.60;92.70
770;DHT22;368;48.698;9.116;2022-11-20T13:25:24;11.90;91.90
770;DHT22;368;48.698;9.116;2022-11-20T13:27:53;10.40;92.90
770;DHT22;368;48.698;9.116;2022-11-20T13:30:22;9.50;95.20
770;DHT22;368;48.698;9.116;2022-11-20T13:32:51;10.10;95.10
770;DHT22;368;48.698;9.116;2022-11-20T13:35:27;11.50;93.90
770;DHT22;368;48.698;9.116;2022-11-20T13:38:06;12.50;91.90
770;DHT22;368;48.698;9.116;2022-11-20T13:40:34;11.90;90.60
770;DHT22;368;48.698;9.116;2022-11-20T13:43:10;11.60;91.70
770;DHT22;368;48.698;9.116;2022-11-20T13:45:41;9.90;93.70
770;DHT22;368;48.698;9.116;2022-11-20T13:48:20;9.90;95.60
770;DHT22;368;48.698;9.116;2022-11-20T13:50:56;9.40;95.70
770;DHT22;368;48.698;9.116;2022-11-20T13:53:41;8.60;97.20
770;DHT22;368;48.698;9.116;2022-11-20T13:56:18;8.90;97.40
770;DHT22;368;48.698;9.116;2022-11-20T13:58:59;9.10;97.70
770;DHT22;368;48.698;9.116;2022-11-20T14:01:30;9.90;96.60
770;DHT22;368;48.698;9.116;2022-11-20T14:03:58;11.20;94.90
770;DHT22;368;48.698;9.116;2022-11-20T14:06:27;10.90;93.80
770;DHT22;368;48.698;9.116;2022-11-20T14:08:55;10.60;93.30
770;DHT22;368;48.698;9.116;2022-11-20T14:11:23;9.40;95.80
770;DHT22;368;48.698;9.116;2022-11-20T14:13:55;8.00;97.40
770;DHT22;368;48.698;9.116;2022-11-20T14:16:22;7.70;98.50
770;DHT22;368;48.698;9.116;2022-11-20T14:18:49;7.20;99.30
770;DHT22;368;48.698;9.116;2022-11-20T14:21:25;7.20;99.90
770;DHT22;368;48.698;9.116;2022-11-20T14:23:54;7.20;99.90
770;DHT22;368;48.698;9.116;2022-11-20T14:26:28;7.10;99.90
770;DHT22;368;48.698;9.116;2022-11-20T14:28:57;7.20;99.90
770;DHT22;368;48.698;9.116;2022-11-20T14:31:26;7.20;99.90
770;DHT22;368;48.698;9.116;2022-11-20T14:33:54;7.30;99.90
770;DHT22;368;48.698;9.116;2022-11-20T14:36:22;7.30;99.90
770;DHT22;368;48.698;9.116;2022-11-20T14:38:51;7.30;99.90
770;DHT22;368;48.698;9.116;2022-11-20T14:41:20;7.50;99.90
770;DHT22;368;48.698;9.116;2022-11-20T14:43:57;7.30;99.90
770;DHT22;368;48.698;9.116;2022-11-20T14:46:26;7.20;99.90
770;DHT22;368;48.698;9.116;2022-11-20T14:48:55;7.30;99.90
770;DHT22;368;48.698;9.116;2022-11-20T14:51:28;7.00;99.90
770;DHT22;368;48.698;9.116;2022-11-20T14:53:55;7.40;99.90
770;DHT22;368;48.698;9.116;2022-11-20T14:56:23;7.10;99.90
770;DHT22;368;48.698;9.116;2022-11-20T14:58:58;7.10;99.90
770;DHT22;368;48.698;9.116;2022-11-20T15:01:28;7.10;99.90
770;DHT22;368;48.698;9.116;2022-11-20T15:04:05;7.00;99.90
770;DHT22;368;48.698;9.116;2022-11-20T15:06:33;7.00;99.90
770;DHT22;368;48.698;9.116;2022-11-20T15:09:01;6.80;99.90
770;DHT22;368;48.698;9.116;2022-11-20T15:11:30;6.80;99.90
770;DHT22;368;48.698;9.116;2022-11-20T15:14:02;6.80;99.90
770;DHT22;368;48.698;9.116;2022-11-20T15:16:30;6.40;99.90
770;DHT22;368;48.698;9.116;2022-11-20T15:18:57;6.40;99.90
770;DHT22;368;48.698;9.116;2022-11-20T15:21:24;6.40;99.90
770;DHT22;368;48.698;9.116;2022-11-20T15:23:51;6.30;99.90
770;DHT22;368;48.698;9.116;2022-11-20T15:26:22;6.20;99.90
770;DHT22;368;48.698;9.116;2022-11-20T15:28:50;6.20;99.90
770;DHT22;368;48.698;9.116;2022-11-20T15:31:21;6.00;99.90
770;DHT22;368;48.698;9.116;2022-11-20T15:33:48;6.10;99.90
770;DHT22;368;48.698;9.116;2022-11-20T15:36:15;5.90;99.90
770;DHT22;368;48.698;9.116;2022-11-20T15:38:42;6.00;99.90
770;DHT22;368;48.698;9.116;2022-11-20T15:41:09;6.00;99.90
770;DHT22;368;48.698;9.116;2022-11-20T15:43:36;6.00;99.90
770;DHT22;368;48.698;9.116;2022-11-20T15:46:04;6.00;99.90
770;DHT22;368;48.698;9.116;2022-11-20T15:48:35;5.90;99.90
770;DHT22;368;48.698;9.116;2022-11-20T15:51:06;6.10;99.90
770;DHT22;368;48.698;9.116;2022-11-20T15:53:39;6.00;99.90
770;DHT22;368;48.698;9.116;2022-11-20T15:56:08;5.80;99.90
770;DHT22;368;48.698;9.116;2022-11-20T15:58:37;5.80;99.90
770;DHT22;368;48.698;9.116;2022-11-20T16:01:04;6.00;99.90
770;DHT22;368;48.698;9.116;2022-11-20T16:03:32;5.70;99.90
770;DHT22;368;48.698;9.116;2022-11-20T16:05:59;5.70;99.90
770;DHT22;368;48.698;9.116;2022-11-20T16:08:26;5.70;99.90
770;DHT22;368;48.698;9.116;2022-11-20T16:10:53;5.70;99.90
770;DHT22;368;48.698;9.116;2022-11-20T16:13:20;5.70;99.90
770;DHT22;368;48.698;9.116;2022-11-20T16:16:06;5.80;99.90
770;DHT22;368;48.698;9.116;2022-11-20T16:18:35;5.50;99.90
770;DHT22;368;48.698;9.116;2022-11-20T16:21:03;5.50;99.90
770;DHT22;368;48.698;9.116;2022-11-20T16:23:31;5.70;99.90
770;DHT22;368;48.698;9.116;2022-11-20T16:25:58;5.80;99.90
770;DHT22;368;48.698;9.116;2022-11-20T16:28:25;5.90;99.90
770;DHT22;368;48.698;9.116;2022-11-20T16:30:52;5.50;99.90
770;DHT22;368;48.698;9.116;2022-11-20T16:33:19;5.60;99.90
770;DHT22;368;48.698;9.116;2022-11-20T16:35:47;5.50;99.90
770;DHT22;368;48.698;9.116;2022-11-20T16:38:14;5.90;99.90
770;DHT22;368;48.698;9.116;2022-11-20T16:40:41;5.80;99.90
770;DHT22;368;48.698;9.116;2022-11-20T16:43:10;5.70;99.90
770;DHT22;368;48.698;9.116;2022-11-20T16:45:41;5.90;99.90
770;DHT22;368;48.698;9.116;2022-11-20T16:48:12;6.00;99.90
770;DHT22;368;48.698;9.116;2022-11-20T16:50:45;5.80;99.90
770;DHT22;368;48.698;9.116;2022-11-20T16:53:14;5.80;99.90
770;DHT22;368;48.698;9.116;2022-11-20T16:55:42;5.90;99.90
770;DHT22;368;48.698;9.116;2022-11-20T16:58:09;5.90;99.90
770;DHT22;368;48.698;9.116;2022-11-20T17:00:37;5.70;99.90
770;DHT22;368;48.698;9.116;2022-11-20T17:03:04;6.00;99.90
770;DHT22;368;48.698;9.116;2022-11-20T17:05:32;5.90;99.90
770;DHT22;368;48.698;9.116;2022-11-20T17:08:00;6.00;99.90
770;DHT22;368;48.698;9.116;2022-11-20T17:10:28;6.00;99.90